createdAt,value
2018-06-20T00:00:40.734Z,76.43
2018-06-20T00:03:07.028Z,76.45
2018-06-20T00:05:33.327Z,76.06
2018-06-20T00:07:59.627Z,76.36
2018-06-20T00:10:25.922Z,75.94
2018-06-20T00:12:52.212Z,76.51
2018-06-20T00:15:18.504Z,76.88
2018-06-20T00:17:44.793Z,77.97
2018-06-20T00:20:11.085Z,78.80
2018-06-20T00:22:37.410Z,79.51
2018-06-20T00:25:03.712Z,79.97
2018-06-20T00:27:30.005Z,80.04
2018-06-20T00:29:56.296Z,80.08
2018-06-20T00:32:22.585Z,79.75
2018-06-20T00:34:48.881Z,79.63
2018-06-20T00:37:15.173Z,79.92
2018-06-20T00:39:41.494Z,80.15
2018-06-20T00:42:07.794Z,80.22
2018-06-20T00:44:34.092Z,79.79
2018-06-20T00:47:00.384Z,80.80
2018-06-20T00:49:26.677Z,81.50
2018-06-20T00:51:52.967Z,81.77
2018-06-20T00:54:19.262Z,82.11
2018-06-20T00:56:45.581Z,81.67
2018-06-20T00:59:11.872Z,81.67
2018-06-20T01:01:38.175Z,82.29
2018-06-20T01:04:04.469Z,82.35
2018-06-20T01:06:30.766Z,82.80
2018-06-20T01:08:57.051Z,83.04
2018-06-20T01:11:23.344Z,83.10
2018-06-20T01:13:49.677Z,82.76
2018-06-20T01:16:15.969Z,81.88
2018-06-20T01:18:42.261Z,82.39
2018-06-20T01:21:08.549Z,82.61
2018-06-20T01:23:34.840Z,82.87
2018-06-20T01:26:01.134Z,82.60
2018-06-20T01:28:27.419Z,82.40
2018-06-20T01:30:53.744Z,82.34
2018-06-20T01:33:20.034Z,82.42
2018-06-20T01:35:46.327Z,82.47
2018-06-20T01:38:12.617Z,82.17
2018-06-20T01:40:38.909Z,82.00
2018-06-20T01:43:05.207Z,82.34
2018-06-20T01:45:31.507Z,82.10
2018-06-20T01:47:57.841Z,82.72
2018-06-20T01:50:24.131Z,82.88
2018-06-20T01:52:50.429Z,82.89
2018-06-20T01:55:16.725Z,83.19
2018-06-20T01:57:43.017Z,83.44
2018-06-20T02:00:09.341Z,83.88
2018-06-20T02:02:35.631Z,83.66
2018-06-20T02:05:01.922Z,84.31
2018-06-20T02:07:28.213Z,84.92
2018-06-20T02:09:54.509Z,84.83
2018-06-20T02:12:20.801Z,85.30
2018-06-20T02:14:47.092Z,85.35
2018-06-20T02:17:13.387Z,85.47
2018-06-20T02:19:39.674Z,86.18
2018-06-20T02:22:05.996Z,85.68
2018-06-20T02:24:32.289Z,85.21
2018-06-20T02:26:58.579Z,84.55
2018-06-20T02:29:24.867Z,83.72
2018-06-20T02:31:51.163Z,83.97
2018-06-20T02:34:17.496Z,84.49
2018-06-20T02:36:43.863Z,84.95
2018-06-20T02:39:10.076Z,85.54
2018-06-20T02:41:36.371Z,85.88
2018-06-20T02:44:02.667Z,85.60
2018-06-20T02:46:28.969Z,85.56
2018-06-20T02:48:55.248Z,85.95
2018-06-20T02:51:21.541Z,86.18
2018-06-20T02:53:47.863Z,86.15
2018-06-20T02:56:14.159Z,86.02
2018-06-20T02:58:40.457Z,85.13
2018-06-20T03:01:06.753Z,85.32
2018-06-20T03:03:33.046Z,85.25
2018-06-20T03:05:59.336Z,85.54
2018-06-20T03:08:25.625Z,85.02
2018-06-20T03:10:51.917Z,86.12
2018-06-20T03:13:18.212Z,88.35
2018-06-20T03:15:44.538Z,88.64
2018-06-20T03:18:10.824Z,88.50
2018-06-20T03:20:37.113Z,87.87
2018-06-20T03:23:03.406Z,87.79
2018-06-20T03:25:29.700Z,88.77
2018-06-20T03:27:56.025Z,89.57
2018-06-20T03:30:22.311Z,89.56
2018-06-20T03:32:48.602Z,89.13
2018-06-20T03:35:14.892Z,88.72
2018-06-20T03:37:41.185Z,87.88
2018-06-20T03:40:07.477Z,87.15
2018-06-20T03:42:33.774Z,86.60
2018-06-20T03:45:00.079Z,86.46
2018-06-20T03:47:26.370Z,85.60
2018-06-20T03:49:52.676Z,85.24
2018-06-20T03:52:18.976Z,84.47
2018-06-20T03:54:45.264Z,84.95
2018-06-20T03:57:11.562Z,84.71
2018-06-20T03:59:37.857Z,83.92
2018-06-20T04:02:04.189Z,83.89
2018-06-20T04:04:30.471Z,83.67
2018-06-20T04:06:56.765Z,83.68
2018-06-20T04:09:23.058Z,83.99
2018-06-20T04:11:49.345Z,83.56
2018-06-20T04:14:15.637Z,83.29
2018-06-20T04:16:41.929Z,83.03
2018-06-20T04:19:08.229Z,82.87
2018-06-20T04:21:34.533Z,82.27
2018-06-20T04:24:00.829Z,81.66
2018-06-20T04:26:27.131Z,81.62
2018-06-20T04:28:53.427Z,81.67
2018-06-20T04:31:19.725Z,81.85
2018-06-20T04:33:46.012Z,81.93
2018-06-20T04:36:12.307Z,80.95
2018-06-20T04:38:38.619Z,80.11
2018-06-20T04:41:04.904Z,80.53
2018-06-20T04:43:31.224Z,79.89
2018-06-20T04:45:57.518Z,78.95
2018-06-20T04:48:23.809Z,78.59
2018-06-20T04:50:50.107Z,78.49
2018-06-20T04:53:16.396Z,78.23
2018-06-20T04:55:42.684Z,78.14
2018-06-20T04:58:08.977Z,78.14
2018-06-20T05:00:35.269Z,78.04
2018-06-20T05:03:01.563Z,76.99
2018-06-20T05:05:27.848Z,76.58
2018-06-20T05:07:54.167Z,76.18
2018-06-20T05:10:20.453Z,75.18
2018-06-20T05:12:46.747Z,75.39
2018-06-20T05:15:13.047Z,75.97
2018-06-20T05:17:39.438Z,75.40
2018-06-20T05:20:05.766Z,74.09
2018-06-20T05:22:32.095Z,72.58
2018-06-20T05:24:58.352Z,71.94
2018-06-20T05:27:24.653Z,71.13
2018-06-20T05:29:50.946Z,72.94
2018-06-20T05:32:17.267Z,74.12
2018-06-20T05:34:43.557Z,74.12
2018-06-20T05:37:09.847Z,74.79
2018-06-20T05:39:36.140Z,75.95
2018-06-20T05:42:02.531Z,76.06
2018-06-20T05:44:28.820Z,76.04
2018-06-20T05:46:55.111Z,76.05
2018-06-20T05:49:21.591Z,75.46
2018-06-20T05:51:47.904Z,71.80
2018-06-20T05:54:14.248Z,70.06
2018-06-20T05:56:40.550Z,69.51
2018-06-20T05:59:06.902Z,68.15
2018-06-20T06:01:33.207Z,69.49
2018-06-20T06:03:59.502Z,70.95
2018-06-20T06:08:52.095Z,64.47
2018-06-20T06:11:18.393Z,67.78
2018-06-20T06:13:44.743Z,70.00
2018-06-20T06:16:11.039Z,65.05
2018-06-20T06:18:37.337Z,57.34
2018-06-20T06:21:03.641Z,55.26
2018-06-20T06:23:29.953Z,57.67
2018-06-20T06:25:56.249Z,62.52
2018-06-20T06:28:22.539Z,65.89
2018-06-20T06:30:48.868Z,67.11
2018-06-20T06:33:15.157Z,68.06
2018-06-20T06:35:41.448Z,66.49
2018-06-20T06:38:07.736Z,66.18
2018-06-20T06:40:34.026Z,65.62
2018-06-20T06:43:00.321Z,66.40
2018-06-20T06:45:26.605Z,65.25
2018-06-20T06:47:52.919Z,60.31
2018-06-20T06:50:19.212Z,60.01
2018-06-20T06:52:45.545Z,55.05
2018-06-20T06:55:11.839Z,53.87
2018-06-20T06:57:38.137Z,53.44
2018-06-20T07:00:04.433Z,51.17
2018-06-20T07:02:30.729Z,49.76
2018-06-20T07:04:57.033Z,49.41
2018-06-20T07:07:23.455Z,49.10
2018-06-20T07:09:49.771Z,50.04
2018-06-20T07:12:16.064Z,49.92
2018-06-20T07:14:42.390Z,49.37
2018-06-20T07:17:08.653Z,48.86
2018-06-20T07:19:34.955Z,48.14
2018-06-20T07:22:01.253Z,48.06
2018-06-20T07:24:27.572Z,47.46
2018-06-20T07:26:53.861Z,48.52
2018-06-20T07:29:20.203Z,48.15
2018-06-20T07:31:46.486Z,48.36
2018-06-20T07:34:12.880Z,47.03
2018-06-20T07:36:39.084Z,46.53
2018-06-20T07:39:05.375Z,46.66
2018-06-20T07:41:31.690Z,45.80
2018-06-20T07:43:58.057Z,46.08
2018-06-20T07:46:24.361Z,46.47
2018-06-20T07:48:50.643Z,47.30
2018-06-20T07:51:16.938Z,45.10
2018-06-20T07:53:43.229Z,44.39
2018-06-20T07:56:09.524Z,44.63
2018-06-20T07:58:35.813Z,44.77
2018-06-20T08:01:02.180Z,43.71
2018-06-20T08:03:28.398Z,44.86
2018-06-20T08:05:54.690Z,43.75
2018-06-20T08:08:20.975Z,41.05
2018-06-20T08:10:47.264Z,42.40
2018-06-20T08:13:13.554Z,43.15
2018-06-20T08:15:39.859Z,41.93
2018-06-20T08:18:06.160Z,41.87
2018-06-20T08:20:32.439Z,46.07
2018-06-20T08:22:58.727Z,44.42
2018-06-20T08:25:25.019Z,41.38
2018-06-20T08:27:51.529Z,39.19
2018-06-20T08:30:17.826Z,40.23
2018-06-20T08:32:44.117Z,40.84
2018-06-20T08:35:10.411Z,39.92
2018-06-20T08:37:36.691Z,39.12
2018-06-20T08:40:02.984Z,38.06
2018-06-20T08:42:29.322Z,39.04
2018-06-20T08:44:55.577Z,39.21
2018-06-20T08:47:21.863Z,40.05
2018-06-20T08:49:48.146Z,39.90
2018-06-20T08:52:14.440Z,41.41
2018-06-20T08:54:40.980Z,42.02
2018-06-20T08:57:08.384Z,41.30
2018-06-20T08:59:35.011Z,39.84
2018-06-20T09:02:01.305Z,39.79
2018-06-20T09:04:27.603Z,38.48
2018-06-20T09:06:53.913Z,38.20
2018-06-20T09:09:20.200Z,40.20
2018-06-20T09:11:46.543Z,40.27
2018-06-20T09:14:12.831Z,39.43
2018-06-20T09:16:40.155Z,40.03
2018-06-20T09:19:06.452Z,38.30
2018-06-20T09:21:32.735Z,37.59
2018-06-20T09:23:59.027Z,37.16
2018-06-20T09:26:25.369Z,34.42
2018-06-20T09:28:51.806Z,35.39
2018-06-20T09:31:18.100Z,35.42
2018-06-20T09:33:44.429Z,34.23
2018-06-20T09:36:10.718Z,35.07
2018-06-20T09:38:37.098Z,35.38
2018-06-20T09:41:03.351Z,35.64
2018-06-20T09:43:29.640Z,34.96
2018-06-20T09:45:55.992Z,33.93
2018-06-20T09:48:22.286Z,35.03
2018-06-20T09:50:48.580Z,36.69
2018-06-20T09:53:14.870Z,35.93
2018-06-20T09:55:41.213Z,34.90
2018-06-20T09:58:07.506Z,32.49
2018-06-20T10:00:33.911Z,30.71
2018-06-20T10:03:00.155Z,30.22
2018-06-20T10:05:26.458Z,31.49
2018-06-20T10:07:52.753Z,34.83
2018-06-20T10:10:19.044Z,36.36
2018-06-20T10:12:45.340Z,36.73
2018-06-20T10:15:11.632Z,36.90
2018-06-20T10:17:37.919Z,38.18
2018-06-20T10:20:04.531Z,37.41
2018-06-20T10:22:30.835Z,38.21
2018-06-20T10:24:57.119Z,37.77
2018-06-20T10:27:23.413Z,33.97
2018-06-20T10:29:49.698Z,32.03
2018-06-20T10:32:16.002Z,30.67
2018-06-20T10:34:42.280Z,32.65
2018-06-20T10:37:08.568Z,33.08
2018-06-20T10:39:34.858Z,33.49
2018-06-20T10:42:01.152Z,32.34
2018-06-20T10:44:27.460Z,32.06
2018-06-20T10:46:53.758Z,32.94
2018-06-20T10:49:20.054Z,34.14
2018-06-20T10:51:46.395Z,35.49
2018-06-20T10:54:12.655Z,36.96
2018-06-20T10:56:38.944Z,35.48
2018-06-20T10:59:05.232Z,34.19
2018-06-20T11:01:31.560Z,35.17
2018-06-20T11:03:57.868Z,36.67
2018-06-20T11:06:24.160Z,36.81
2018-06-20T11:08:50.450Z,35.32
2018-06-20T11:11:16.741Z,33.75
2018-06-20T11:13:43.038Z,33.72
2018-06-20T11:16:09.328Z,35.57
2018-06-20T11:18:35.617Z,34.77
2018-06-20T11:21:01.918Z,34.35
2018-06-20T11:23:28.221Z,33.03
2018-06-20T11:25:54.520Z,31.40
2018-06-20T11:28:20.807Z,31.96
2018-06-20T11:30:48.762Z,31.74
2018-06-20T11:33:13.383Z,32.35
2018-06-20T11:35:39.670Z,32.29
2018-06-20T11:38:05.969Z,33.28
2018-06-20T11:40:32.298Z,33.89
2018-06-20T11:42:58.588Z,33.73
2018-06-20T11:45:24.886Z,33.45
2018-06-20T11:47:51.190Z,32.24
2018-06-20T11:50:17.484Z,34.14
2018-06-20T11:52:43.770Z,34.96
2018-06-20T11:55:10.060Z,35.43
2018-06-20T11:57:36.350Z,33.83
2018-06-20T12:00:02.642Z,33.48
2018-06-20T12:02:28.937Z,33.33
2018-06-20T12:04:55.226Z,34.16
2018-06-20T12:07:21.538Z,35.49
2018-06-20T12:09:47.837Z,34.51
2018-06-20T12:12:14.126Z,34.09
2018-06-20T12:14:40.426Z,34.50
2018-06-20T12:17:06.711Z,32.73
2018-06-20T12:19:33.400Z,32.84
2018-06-20T12:21:59.719Z,32.97
2018-06-20T12:24:26.040Z,33.37
2018-06-20T12:26:52.332Z,33.56
2018-06-20T12:29:18.781Z,33.44
2018-06-20T12:31:45.174Z,33.19
2018-06-20T12:34:11.465Z,32.42
2018-06-20T12:36:37.794Z,33.04
2018-06-20T12:39:04.270Z,34.07
2018-06-20T12:41:30.554Z,33.79
2018-06-20T12:43:56.850Z,34.24
2018-06-20T12:46:24.148Z,33.28
2018-06-20T12:48:50.550Z,34.61
2018-06-20T12:51:16.846Z,34.70
2018-06-20T12:53:43.145Z,33.88
2018-06-20T12:56:09.431Z,33.73
2018-06-20T12:58:35.719Z,33.58
2018-06-20T13:01:02.026Z,32.00
2018-06-20T13:03:28.336Z,32.65
2018-06-20T13:05:54.622Z,33.71
2018-06-20T13:08:20.912Z,33.44
2018-06-20T13:10:47.208Z,33.83
2018-06-20T13:13:13.502Z,34.45
2018-06-20T13:15:39.826Z,34.91
2018-06-20T13:18:06.122Z,34.43
2018-06-20T13:20:32.424Z,34.01
2018-06-20T13:22:58.723Z,32.67
2018-06-20T13:25:25.158Z,32.12
2018-06-20T13:27:51.531Z,29.98
2018-06-20T13:30:17.798Z,28.46
2018-06-20T13:32:44.099Z,28.61
2018-06-20T13:35:10.444Z,29.31
2018-06-20T13:37:36.738Z,31.83
2018-06-20T13:40:03.034Z,33.44
2018-06-20T13:42:29.332Z,33.97
2018-06-20T13:44:55.654Z,33.70
2018-06-20T13:47:21.971Z,34.69
2018-06-20T13:49:48.272Z,34.17
2018-06-20T13:52:14.613Z,33.94
2018-06-20T13:54:41.035Z,35.34
2018-06-20T13:57:07.327Z,35.46
2018-06-20T13:59:33.614Z,37.43
2018-06-20T14:01:59.917Z,38.54
2018-06-20T14:04:26.596Z,39.35
2018-06-20T14:06:52.917Z,39.67
2018-06-20T14:09:19.357Z,39.34
2018-06-20T14:11:45.656Z,38.67
2018-06-20T14:14:11.951Z,39.02
2018-06-20T14:16:38.313Z,38.96
2018-06-20T14:19:04.568Z,39.18
2018-06-20T14:21:30.986Z,39.61
2018-06-20T14:23:57.392Z,40.30
2018-06-20T14:26:23.710Z,40.31
2018-06-20T14:28:50.000Z,40.56
2018-06-20T14:31:16.345Z,41.08
2018-06-20T14:33:42.641Z,42.23
2018-06-20T14:36:08.933Z,41.73
2018-06-20T14:38:35.252Z,39.95
2018-06-20T14:41:01.522Z,40.24
2018-06-20T14:43:27.836Z,40.45
2018-06-20T14:45:54.123Z,40.94
2018-06-20T14:48:20.442Z,40.81
2018-06-20T14:50:46.731Z,39.22
2018-06-20T14:53:13.018Z,39.87
2018-06-20T14:55:39.685Z,40.32
2018-06-20T14:58:05.980Z,40.88
2018-06-20T15:00:32.482Z,41.57
2018-06-20T15:02:58.917Z,41.52
2018-06-20T15:05:25.251Z,39.70
2018-06-20T15:07:51.540Z,40.68
2018-06-20T15:10:17.864Z,42.49
2018-06-20T15:12:44.157Z,42.50
2018-06-20T15:15:10.453Z,41.80
2018-06-20T15:17:36.769Z,41.84
2018-06-20T15:20:03.070Z,42.31
2018-06-20T15:22:29.360Z,42.20
2018-06-20T15:24:55.653Z,42.31
2018-06-20T15:27:21.950Z,42.39
2018-06-20T15:29:48.248Z,42.48
2018-06-20T15:32:14.579Z,42.54
2018-06-20T15:34:40.867Z,42.59
2018-06-20T15:37:07.212Z,42.87
2018-06-20T15:39:33.518Z,42.49
2018-06-20T15:41:59.897Z,42.75
2018-06-20T15:44:26.189Z,43.33
2018-06-20T15:46:52.474Z,42.39
2018-06-20T15:49:18.760Z,43.23
2018-06-20T15:51:45.053Z,42.57
2018-06-20T15:54:11.334Z,42.07
2018-06-20T15:56:37.623Z,42.92
2018-06-20T15:59:03.927Z,43.52
2018-06-20T16:01:30.214Z,43.75
2018-06-20T16:03:56.512Z,43.71
2018-06-20T16:06:22.801Z,43.47
2018-06-20T16:08:49.096Z,43.59
2018-06-20T16:11:15.378Z,43.36
2018-06-20T16:13:41.672Z,43.83
2018-06-20T16:16:07.976Z,44.24
2018-06-20T16:18:34.268Z,44.46
2018-06-20T16:21:00.556Z,44.75
2018-06-20T16:23:28.020Z,44.71
2018-06-20T16:25:54.383Z,44.64
2018-06-20T16:28:20.679Z,43.99
2018-06-20T16:30:46.983Z,44.17
2018-06-20T16:33:13.286Z,43.99
2018-06-20T16:35:39.570Z,44.25
2018-06-20T16:38:05.913Z,44.23
2018-06-20T16:40:32.199Z,44.18
2018-06-20T16:42:58.587Z,44.20
2018-06-20T16:45:24.880Z,44.30
2018-06-20T16:47:51.204Z,44.49
2018-06-20T16:50:17.494Z,44.58
2018-06-20T16:52:43.782Z,44.95
2018-06-20T16:55:10.083Z,45.55
2018-06-20T16:57:36.367Z,45.74
2018-06-20T17:00:02.656Z,45.73
2018-06-20T17:02:28.961Z,46.04
2018-06-20T17:04:55.310Z,46.39
2018-06-20T17:07:21.600Z,46.37
2018-06-20T17:09:47.891Z,46.33
2018-06-20T17:12:14.186Z,46.19
2018-06-20T17:14:40.473Z,46.48
2018-06-20T17:17:06.774Z,46.56
2018-06-20T17:19:33.071Z,46.58
2018-06-20T17:21:59.362Z,46.06
2018-06-20T17:24:25.653Z,46.48
2018-06-20T17:26:51.942Z,46.53
2018-06-20T17:29:18.240Z,47.01
2018-06-20T17:31:44.534Z,47.03
2018-06-20T17:34:10.819Z,47.30
2018-06-20T17:36:37.152Z,47.44
2018-06-20T17:39:03.442Z,47.67
2018-06-20T17:41:29.749Z,48.01
2018-06-20T17:43:56.046Z,48.30
2018-06-20T17:46:22.371Z,48.56
2018-06-20T17:48:48.630Z,48.89
2018-06-20T17:51:14.926Z,49.33
2018-06-20T17:53:41.214Z,49.57
2018-06-20T17:56:07.503Z,49.92
2018-06-20T17:58:33.791Z,50.55
2018-06-20T18:01:00.094Z,50.60
2018-06-20T18:03:26.381Z,50.91
2018-06-20T18:05:52.678Z,51.15
2018-06-20T18:08:18.974Z,51.62
2018-06-20T18:10:45.262Z,51.93
2018-06-20T18:13:11.553Z,52.01
2018-06-20T18:15:37.841Z,52.24
2018-06-20T18:18:04.122Z,52.62
2018-06-20T18:20:30.418Z,52.75
2018-06-20T18:22:56.801Z,52.96
2018-06-20T18:25:23.093Z,53.26
2018-06-20T18:27:49.438Z,53.46
2018-06-20T18:30:15.759Z,53.75
2018-06-20T18:32:42.046Z,54.03
2018-06-20T18:35:08.336Z,53.60
2018-06-20T18:37:34.882Z,53.74
2018-06-20T18:40:01.123Z,53.83
2018-06-20T18:42:27.424Z,53.73
2018-06-20T18:44:53.719Z,53.66
2018-06-20T18:47:20.053Z,54.16
2018-06-20T18:49:46.335Z,54.99
2018-06-20T18:52:12.629Z,55.11
2018-06-20T18:54:39.016Z,55.21
2018-06-20T18:57:05.321Z,55.52
2018-06-20T18:59:31.598Z,56.01
2018-06-20T19:01:57.886Z,55.98
2018-06-20T19:04:24.191Z,55.70
2018-06-20T19:06:50.545Z,55.76
2018-06-20T19:09:16.797Z,55.94
2018-06-20T19:11:43.095Z,56.09
2018-06-20T19:14:09.402Z,56.31
2018-06-20T19:16:35.767Z,57.08
2018-06-20T19:19:02.059Z,54.24
2018-06-20T19:21:28.448Z,54.87
2018-06-20T19:23:54.687Z,55.19
2018-06-20T19:26:20.974Z,54.97
2018-06-20T19:28:47.259Z,55.28
2018-06-20T19:31:13.594Z,55.63
2018-06-20T19:33:39.940Z,56.27
2018-06-20T19:36:06.240Z,57.20
2018-06-20T19:38:32.530Z,57.34
2018-06-20T19:40:58.836Z,57.59
2018-06-20T19:43:25.243Z,57.33
2018-06-20T19:45:51.549Z,58.25
2018-06-20T19:48:17.847Z,58.64
2018-06-20T19:50:44.146Z,58.53
2018-06-20T19:53:10.442Z,58.98
2018-06-20T19:55:36.738Z,58.52
2018-06-20T19:58:03.032Z,58.92
2018-06-20T20:00:29.943Z,59.36
2018-06-20T20:02:56.161Z,59.78
2018-06-20T20:05:22.486Z,59.66
2018-06-20T20:07:48.794Z,59.87
2018-06-20T20:10:15.087Z,60.14
2018-06-20T20:12:41.380Z,60.31
2018-06-20T20:15:07.683Z,60.25
2018-06-20T20:17:33.985Z,60.27
2018-06-20T20:20:00.300Z,60.62
2018-06-20T20:22:26.630Z,60.41
2018-06-20T20:24:52.920Z,60.59
2018-06-20T20:27:19.222Z,60.74
2018-06-20T20:29:45.525Z,61.18
2018-06-20T20:32:11.824Z,61.02
2018-06-20T20:34:38.112Z,60.92
2018-06-20T20:37:04.402Z,61.11
2018-06-20T20:39:30.725Z,61.10
2018-06-20T20:41:57.022Z,61.35
2018-06-20T20:44:23.311Z,61.25
2018-06-20T20:46:49.600Z,61.58
2018-06-20T20:49:15.891Z,61.84
2018-06-20T20:51:42.346Z,62.47
2018-06-20T20:54:08.638Z,62.55
2018-06-20T20:56:34.940Z,61.66
2018-06-20T20:59:01.283Z,62.04
2018-06-20T21:01:27.571Z,62.10
2018-06-20T21:03:53.864Z,62.84
2018-06-20T21:06:20.162Z,62.21
2018-06-20T21:08:46.452Z,62.18
2018-06-20T21:11:12.786Z,62.55
2018-06-20T21:13:39.034Z,63.03
2018-06-20T21:16:05.323Z,63.05
2018-06-20T21:18:31.623Z,63.21
2018-06-20T21:20:57.929Z,63.61
2018-06-20T21:23:24.262Z,64.49
2018-06-20T21:25:50.586Z,63.71
2018-06-20T21:28:16.840Z,64.00
2018-06-20T21:30:43.136Z,64.73
2018-06-20T21:33:09.433Z,65.20
2018-06-20T21:35:35.723Z,65.48
2018-06-20T21:38:02.023Z,65.60
2018-06-20T21:40:28.311Z,66.20
2018-06-20T21:42:54.621Z,66.44
2018-06-20T21:45:20.911Z,66.94
2018-06-20T21:47:47.210Z,66.77
2018-06-20T21:50:13.503Z,66.12
2018-06-20T21:52:39.856Z,65.23
2018-06-20T21:55:06.184Z,66.58
2018-06-20T21:57:32.432Z,66.04
2018-06-20T21:59:58.721Z,65.93
2018-06-20T22:02:25.010Z,66.06
2018-06-20T22:04:51.308Z,66.01
2018-06-20T22:07:17.597Z,65.16
2018-06-20T22:09:43.925Z,65.36
2018-06-20T22:12:10.217Z,66.16
2018-06-20T22:14:36.512Z,66.68
2018-06-20T22:17:02.809Z,67.24
2018-06-20T22:19:29.100Z,67.05
2018-06-20T22:21:55.414Z,66.64
2018-06-20T22:24:21.702Z,65.64
2018-06-20T22:26:47.988Z,66.22
2018-06-20T22:29:14.286Z,67.11
2018-06-20T22:31:40.579Z,67.34
2018-06-20T22:34:06.869Z,68.29
2018-06-20T22:36:33.169Z,68.75
2018-06-20T22:38:59.464Z,69.51
2018-06-20T22:41:25.762Z,70.18
2018-06-20T22:43:52.053Z,70.67
2018-06-20T22:46:18.350Z,71.36
2018-06-20T22:48:44.636Z,71.31
2018-06-20T22:51:10.927Z,71.20
2018-06-20T22:53:37.222Z,71.19
2018-06-20T22:56:03.506Z,71.93
2018-06-20T22:58:29.801Z,72.35
2018-06-20T23:00:56.101Z,72.82
2018-06-20T23:03:22.405Z,73.12
2018-06-20T23:05:48.690Z,72.73
2018-06-20T23:08:14.981Z,72.65
2018-06-20T23:10:41.271Z,72.56
2018-06-20T23:13:07.568Z,73.09
2018-06-20T23:15:33.899Z,72.95
2018-06-20T23:18:00.184Z,73.08
2018-06-20T23:20:26.484Z,72.72
2018-06-20T23:22:52.783Z,73.29
2018-06-20T23:25:19.088Z,73.74
2018-06-20T23:27:45.366Z,74.17
2018-06-20T23:30:11.655Z,73.74
2018-06-20T23:32:37.983Z,73.75
2018-06-20T23:35:04.272Z,74.25
2018-06-20T23:37:30.561Z,73.91
2018-06-20T23:39:56.858Z,74.18
2018-06-20T23:42:23.143Z,73.89
2018-06-20T23:44:49.433Z,74.20
2018-06-20T23:47:15.724Z,74.32
2018-06-20T23:49:42.060Z,74.23
2018-06-20T23:52:08.352Z,73.93
2018-06-20T23:54:34.640Z,73.71
2018-06-20T23:57:00.941Z,73.76
2018-06-20T23:59:27.228Z,73.59
